createdAt,value
2022-10-10T00:04:04.816Z,100084.80
2022-10-10T00:09:07.682Z,100079.86
2022-10-10T00:14:10.512Z,100082.30
2022-10-10T00:19:13.667Z,100078.09
2022-10-10T00:24:16.484Z,100071.34
2022-10-10T00:29:19.353Z,100060.04
2022-10-10T00:34:22.259Z,100058.58
2022-10-10T00:39:25.363Z,100055.16
2022-10-10T00:44:28.640Z,100052.89
2022-10-10T00:49:32.109Z,100046.88
2022-10-10T00:54:38.082Z,100039.50
2022-10-10T00:59:42.812Z,100036.20
2022-10-10T01:04:45.957Z,100036.79
2022-10-10T01:09:51.421Z,100031.63
2022-10-10T01:15:15.668Z,100028.75
2022-10-10T01:20:59.728Z,100018.40
2022-10-10T01:26:23.936Z,100022.13
2022-10-10T01:31:29.403Z,100017.83
2022-10-10T01:37:05.940Z,100014.36
2022-10-10T01:42:20.630Z,100014.32
2022-10-10T01:47:23.732Z,100009.05
2022-10-10T01:52:38.596Z,100003.83
2022-10-10T01:58:16.221Z,100004.49
2022-10-10T02:03:30.148Z,100001.03
2022-10-10T02:08:35.667Z,100000.11
2022-10-10T02:14:02.749Z,99999.11
2022-10-10T02:19:10.907Z,99995.01
2022-10-10T02:24:14.961Z,99984.59
2022-10-10T02:29:22.169Z,99981.90
2022-10-10T02:34:29.445Z,99984.67
2022-10-10T02:39:36.570Z,99978.79
2022-10-10T02:44:40.315Z,99976.75
2022-10-10T02:49:43.875Z,99972.10
2022-10-10T02:54:47.024Z,99966.25
2022-10-10T02:59:50.046Z,99965.95
2022-10-10T03:04:52.895Z,99964.27
2022-10-10T03:09:55.759Z,99966.28
2022-10-10T03:15:02.025Z,99961.14
2022-10-10T03:20:09.048Z,99955.56
2022-10-10T03:25:12.020Z,99955.21
2022-10-10T03:30:15.039Z,99961.60
2022-10-10T03:35:17.940Z,99953.64
2022-10-10T03:40:21.022Z,99955.50
2022-10-10T03:45:24.682Z,99942.61
2022-10-10T03:50:27.741Z,99938.66
2022-10-10T03:55:30.694Z,99939.46
2022-10-10T04:00:33.712Z,99934.21
2022-10-10T04:05:38.860Z,99928.54
2022-10-10T04:10:41.902Z,99918.61
2022-10-10T04:15:44.952Z,99921.32
2022-10-10T04:20:47.942Z,99922.25
2022-10-10T04:25:52.553Z,99917.55
2022-10-10T04:30:56.738Z,99919.86
2022-10-10T04:35:59.892Z,99926.23
2022-10-10T04:41:03.553Z,99927.01
2022-10-10T04:46:06.609Z,99926.12
2022-10-10T04:51:12.796Z,99924.69
2022-10-10T04:56:15.634Z,99923.77
2022-10-10T05:01:18.809Z,99922.48
2022-10-10T05:06:21.831Z,99921.02
2022-10-10T05:11:24.799Z,99920.48
2022-10-10T05:16:28.182Z,99920.65
2022-10-10T05:21:31.759Z,99919.98
2022-10-10T05:26:34.556Z,99918.72
2022-10-10T05:31:37.413Z,99922.18
2022-10-10T05:36:41.103Z,99921.60
2022-10-10T05:41:44.243Z,99927.14
2022-10-10T05:46:47.068Z,99933.41
2022-10-10T05:51:50.124Z,99937.83
2022-10-10T05:56:52.997Z,99941.27
2022-10-10T06:01:56.408Z,99935.59
2022-10-10T06:06:59.234Z,99932.45
2022-10-10T06:12:02.555Z,99934.36
2022-10-10T06:17:05.373Z,99934.50
2022-10-10T06:22:08.619Z,99931.59
2022-10-10T06:27:11.546Z,99931.00
2022-10-10T06:32:14.440Z,99928.11
2022-10-10T06:37:17.490Z,99932.89
2022-10-10T06:42:20.451Z,99932.41
2022-10-10T06:47:28.557Z,99935.05
2022-10-10T06:52:31.646Z,99931.48
2022-10-10T06:57:34.702Z,99927.53
2022-10-10T07:02:40.847Z,99926.66
2022-10-10T07:07:45.103Z,99922.04
2022-10-10T07:12:47.988Z,99925.15
2022-10-10T07:17:57.642Z,99923.80
2022-10-10T07:23:01.233Z,99920.85
2022-10-10T07:28:04.215Z,99914.45
2022-10-10T07:33:07.306Z,99906.90
2022-10-10T07:38:12.726Z,99906.38
2022-10-10T07:43:15.565Z,99906.13
2022-10-10T07:48:18.365Z,99907.69
2022-10-10T07:53:21.377Z,99903.30
2022-10-10T07:58:24.205Z,99897.91
2022-10-10T08:03:27.337Z,99894.90
2022-10-10T08:08:33.956Z,99890.05
2022-10-10T08:13:38.620Z,99880.20
2022-10-10T08:18:45.054Z,99879.00
2022-10-10T08:23:48.047Z,99876.33
2022-10-10T08:28:50.965Z,99866.95
2022-10-10T08:33:56.309Z,99869.31
2022-10-10T08:39:01.058Z,99862.10
2022-10-10T08:44:14.405Z,99854.17
2022-10-10T08:49:26.054Z,99849.05
2022-10-10T08:54:32.379Z,99844.45
2022-10-10T08:59:39.837Z,99839.15
2022-10-10T09:04:43.259Z,99830.42
2022-10-10T09:09:58.977Z,99822.90
2022-10-10T09:15:19.176Z,99809.63
2022-10-10T09:20:49.166Z,99809.81
2022-10-10T09:26:06.407Z,99808.02
2022-10-10T09:31:28.752Z,99797.52
2022-10-10T09:36:35.965Z,99787.79
2022-10-10T09:41:47.560Z,99782.67
2022-10-10T09:46:50.661Z,99781.23
2022-10-10T09:51:53.629Z,99776.80
2022-10-10T09:56:58.214Z,99779.05
2022-10-10T10:02:03.130Z,99771.59
2022-10-10T10:07:28.185Z,99762.58
2022-10-10T10:12:40.691Z,99758.09
2022-10-10T10:17:43.805Z,99753.64
2022-10-10T10:22:47.208Z,99748.05
2022-10-10T10:27:50.147Z,99738.58
2022-10-10T10:33:05.607Z,99730.19
2022-10-10T10:38:16.464Z,99722.16
2022-10-10T10:43:38.040Z,99708.84
2022-10-10T10:49:05.536Z,99712.70
2022-10-10T10:54:40.482Z,99707.23
2022-10-10T11:00:21.881Z,99695.11
2022-10-10T11:05:41.397Z,99686.14
2022-10-10T11:11:02.145Z,99679.43
2022-10-10T11:16:36.291Z,99674.70
2022-10-10T11:22:19.972Z,99671.23
2022-10-10T11:27:49.215Z,99661.39
2022-10-10T11:33:07.499Z,99655.33
2022-10-10T11:38:22.950Z,99645.13
2022-10-10T11:43:48.402Z,99635.26
2022-10-10T11:49:06.710Z,99634.20
2022-10-10T11:54:24.202Z,99626.92
2022-10-10T11:59:32.249Z,99619.82
2022-10-10T12:04:36.478Z,99610.04
2022-10-10T12:09:46.309Z,99600.09
2022-10-10T12:14:54.357Z,99600.73
2022-10-10T12:20:29.477Z,99592.83
2022-10-10T12:25:45.671Z,99584.85
2022-10-10T12:30:58.775Z,99583.83
2022-10-10T12:36:17.099Z,99578.59
2022-10-10T12:41:20.399Z,99569.66
2022-10-10T12:46:27.188Z,99562.94
2022-10-10T12:51:33.577Z,99560.77
2022-10-10T12:56:36.611Z,99546.24
2022-10-10T13:01:42.463Z,99542.45
2022-10-10T13:06:48.083Z,99534.86
2022-10-10T13:12:23.076Z,99529.34
2022-10-10T13:17:38.173Z,99525.83
2022-10-10T13:22:44.062Z,99521.46
2022-10-10T13:27:53.111Z,99516.54
2022-10-10T13:32:56.781Z,99514.70
2022-10-10T13:38:01.532Z,99504.34
2022-10-10T13:43:04.577Z,99502.69
2022-10-10T13:48:27.203Z,99493.39
2022-10-10T13:53:30.281Z,99487.91
2022-10-10T13:58:40.869Z,99481.77
2022-10-10T14:03:46.983Z,99481.81
2022-10-10T14:08:51.344Z,99477.98
2022-10-10T14:14:20.427Z,99472.02
2022-10-10T14:19:23.968Z,99464.13
2022-10-10T14:24:26.902Z,99458.77
2022-10-10T14:29:29.802Z,99452.52
2022-10-10T14:34:32.646Z,99449.74
2022-10-10T14:39:35.456Z,99443.90
2022-10-10T14:44:38.375Z,99435.61
2022-10-10T14:49:41.253Z,99436.60
2022-10-10T14:54:44.149Z,99432.25
2022-10-10T14:59:49.721Z,99428.75
2022-10-10T15:04:54.391Z,99421.52
2022-10-10T15:10:30.891Z,99418.84
2022-10-10T15:15:20.379Z,99420.10
2022-10-10T15:20:30.619Z,99418.42
2022-10-10T15:25:34.549Z,99418.36
2022-10-10T15:30:42.940Z,99415.85
2022-10-10T15:36:08.123Z,99412.86
2022-10-10T15:41:13.035Z,99412.55
2022-10-10T15:46:15.845Z,99413.86
2022-10-10T15:51:19.135Z,99406.63
2022-10-10T15:56:22.271Z,99402.65
2022-10-10T16:01:26.686Z,99402.76
2022-10-10T16:06:29.727Z,99404.87
2022-10-10T16:11:32.800Z,99408.66
2022-10-10T16:16:35.696Z,99407.22
2022-10-10T16:21:38.947Z,99410.13
2022-10-10T16:26:42.028Z,99414.16
2022-10-10T16:31:45.230Z,99410.54
2022-10-10T16:36:48.076Z,99405.06
2022-10-10T16:41:51.007Z,99402.83
2022-10-10T16:46:53.980Z,99404.59
2022-10-10T16:51:56.833Z,99398.53
2022-10-10T16:56:59.653Z,99401.54
2022-10-10T17:02:02.628Z,99398.16
2022-10-10T17:07:05.800Z,99402.87
2022-10-10T17:12:08.760Z,99400.09
2022-10-10T17:17:13.208Z,99399.30
2022-10-10T17:22:16.858Z,99399.27
2022-10-10T17:27:19.855Z,99397.00
2022-10-10T17:32:23.825Z,99389.71
2022-10-10T17:37:27.171Z,99387.46
2022-10-10T17:42:32.622Z,99380.56
2022-10-10T17:47:35.640Z,99377.53
2022-10-10T17:52:38.641Z,99375.71
2022-10-10T17:57:45.682Z,99374.27
2022-10-10T18:02:51.282Z,99373.48
2022-10-10T18:07:54.371Z,99366.50
2022-10-10T18:12:59.102Z,99368.44
2022-10-10T18:18:02.271Z,99359.20
2022-10-10T18:23:05.633Z,99360.62
2022-10-10T18:28:08.658Z,99356.73
2022-10-10T18:33:11.818Z,99356.52
2022-10-10T18:38:14.922Z,99354.19
2022-10-10T18:43:19.809Z,99349.67
2022-10-10T18:48:22.696Z,99344.52
2022-10-10T18:53:25.778Z,99341.08
2022-10-10T18:58:32.772Z,99346.41
2022-10-10T19:03:37.179Z,99347.98
2022-10-10T19:08:40.775Z,99352.06
2022-10-10T19:13:43.985Z,99351.57
2022-10-10T19:18:47.312Z,99357.24
2022-10-10T19:23:50.396Z,99354.00
2022-10-10T19:28:53.359Z,99357.51
2022-10-10T19:33:57.446Z,99354.75
2022-10-10T19:39:01.092Z,99360.14
2022-10-10T19:44:05.833Z,99363.73
2022-10-10T19:49:10.018Z,99363.55
2022-10-10T19:54:12.914Z,99363.35
2022-10-10T19:59:15.908Z,99360.65
2022-10-10T20:04:18.803Z,99361.25
2022-10-10T20:09:21.752Z,99359.19
2022-10-10T20:14:24.622Z,99360.30
2022-10-10T20:19:27.734Z,99360.80
2022-10-10T20:24:31.229Z,99362.45
2022-10-10T20:29:34.301Z,99367.27
2022-10-10T20:34:37.280Z,99368.81
2022-10-10T20:39:40.196Z,99367.05
2022-10-10T20:44:43.373Z,99374.88
2022-10-10T20:49:46.313Z,99379.80
2022-10-10T20:54:49.262Z,99380.46
2022-10-10T20:59:52.113Z,99381.80
2022-10-10T21:04:54.916Z,99382.88
2022-10-10T21:09:59.362Z,99376.27
2022-10-10T21:15:03.189Z,99380.18
2022-10-10T21:20:06.407Z,99379.16
2022-10-10T21:25:09.582Z,99378.99
2022-10-10T21:30:12.546Z,99374.92
2022-10-10T21:35:16.149Z,99385.27
2022-10-10T21:40:19.990Z,99385.48
2022-10-10T21:45:26.282Z,99384.71
2022-10-10T21:50:29.868Z,99383.17
2022-10-10T21:55:38.394Z,99380.73
2022-10-10T22:00:43.387Z,99385.58
2022-10-10T22:05:47.754Z,99386.20
2022-10-10T22:10:52.847Z,99388.83
2022-10-10T22:15:56.830Z,99388.75
2022-10-10T22:21:07.101Z,99389.39
2022-10-10T22:26:14.904Z,99387.92
2022-10-10T22:31:21.266Z,99383.30
2022-10-10T22:36:25.356Z,99385.11
2022-10-10T22:41:28.549Z,99383.58
2022-10-10T22:46:32.247Z,99380.70
2022-10-10T22:51:35.785Z,99383.11
2022-10-10T22:56:38.837Z,99384.86
2022-10-10T23:01:43.145Z,99388.89
2022-10-10T23:06:47.912Z,99392.51
2022-10-10T23:11:51.456Z,99394.92
2022-10-10T23:16:55.399Z,99400.66
2022-10-10T23:21:59.347Z,99403.61
2022-10-10T23:27:06.275Z,99402.95
2022-10-10T23:32:10.651Z,99407.23
2022-10-10T23:37:14.496Z,99402.89
2022-10-10T23:42:18.344Z,99404.81
2022-10-10T23:47:22.184Z,99404.42
2022-10-10T23:52:26.497Z,99408.11
2022-10-10T23:57:29.350Z,99412.56
